sensor_id;sensor_type;location;lat;lon;timestamp;P1;durP1;ratioP1;P2;durP2;ratioP2
23370;SDS011;11858;51.056;3.712;2023-04-08T00:00:40;2.38;;;2.28;;
23370;SDS011;11858;51.056;3.712;2023-04-08T00:03:07;8.32;;;4.25;;
23370;SDS011;11858;51.056;3.712;2023-04-08T00:05:33;3.25;;;3.13;;
23370;SDS011;11858;51.056;3.712;2023-04-08T00:07:59;2.33;;;2.22;;
23370;SDS011;11858;51.056;3.712;2023-04-08T00:10:24;2.35;;;2.25;;
23370;SDS011;11858;51.056;3.712;2023-04-08T00:12:50;2.35;;;2.25;;
23370;SDS011;11858;51.056;3.712;2023-04-08T00:15:16;2.47;;;2.38;;
23370;SDS011;11858;51.056;3.712;2023-04-08T00:17:42;2.60;;;2.50;;
23370;SDS011;11858;51.056;3.712;2023-04-08T00:20:09;2.55;;;2.45;;
23370;SDS011;11858;51.056;3.712;2023-04-08T00:22:35;2.78;;;2.67;;
23370;SDS011;11858;51.056;3.712;2023-04-08T00:25:01;2.90;;;2.80;;
23370;SDS011;11858;51.056;3.712;2023-04-08T00:27:30;2.80;;;2.70;;
23370;SDS011;11858;51.056;3.712;2023-04-08T00:29:56;2.70;;;2.60;;
23370;SDS011;11858;51.056;3.712;2023-04-08T00:32:24;3.15;;;3.05;;
23370;SDS011;11858;51.056;3.712;2023-04-08T00:34:50;3.03;;;2.90;;
23370;SDS011;11858;51.056;3.712;2023-04-08T00:37:16;2.50;;;2.40;;
23370;SDS011;11858;51.056;3.712;2023-04-08T00:39:42;2.75;;;2.65;;
23370;SDS011;11858;51.056;3.712;2023-04-08T00:42:08;3.78;;;3.58;;
23370;SDS011;11858;51.056;3.712;2023-04-08T00:44:33;3.30;;;3.20;;
23370;SDS011;11858;51.056;3.712;2023-04-08T00:47:00;3.63;;;3.42;;
23370;SDS011;11858;51.056;3.712;2023-04-08T00:49:25;3.70;;;3.50;;
23370;SDS011;11858;51.056;3.712;2023-04-08T00:51:52;3.10;;;3.00;;
23370;SDS011;11858;51.056;3.712;2023-04-08T00:54:18;3.63;;;3.42;;
23370;SDS011;11858;51.056;3.712;2023-04-08T00:56:44;3.25;;;3.15;;
23370;SDS011;11858;51.056;3.712;2023-04-08T00:59:10;3.22;;;3.13;;
23370;SDS011;11858;51.056;3.712;2023-04-08T01:01:42;3.42;;;3.22;;
23370;SDS011;11858;51.056;3.712;2023-04-08T01:09:38;3.42;;;3.22;;
23370;SDS011;11858;51.056;3.712;2023-04-08T01:12:10;3.47;;;3.38;;
23370;SDS011;11858;51.056;3.712;2023-04-08T01:17:10;2.90;;;2.80;;
23370;SDS011;11858;51.056;3.712;2023-04-08T01:19:39;3.10;;;3.00;;
23370;SDS011;11858;51.056;3.712;2023-04-08T01:22:25;3.70;;;3.50;;
23370;SDS011;11858;51.056;3.712;2023-04-08T01:25:05;3.08;;;2.97;;
23370;SDS011;11858;51.056;3.712;2023-04-08T01:27:35;3.33;;;3.22;;
23370;SDS011;11858;51.056;3.712;2023-04-08T01:30:02;3.25;;;3.15;;
23370;SDS011;11858;51.056;3.712;2023-04-08T01:32:31;3.30;;;3.20;;
23370;SDS011;11858;51.056;3.712;2023-04-08T01:34:58;4.80;;;4.55;;
23370;SDS011;11858;51.056;3.712;2023-04-08T01:37:25;4.30;;;4.10;;
23370;SDS011;11858;51.056;3.712;2023-04-08T01:39:52;3.95;;;3.75;;
23370;SDS011;11858;51.056;3.712;2023-04-08T01:42:19;4.78;;;4.47;;
23370;SDS011;11858;51.056;3.712;2023-04-08T01:44:48;4.47;;;4.28;;
23370;SDS011;11858;51.056;3.712;2023-04-08T01:47:16;4.38;;;4.18;;
23370;SDS011;11858;51.056;3.712;2023-04-08T01:49:43;4.28;;;4.07;;
23370;SDS011;11858;51.056;3.712;2023-04-08T01:52:09;5.97;;;5.53;;
23370;SDS011;11858;51.056;3.712;2023-04-08T01:54:36;4.40;;;4.20;;
23370;SDS011;11858;51.056;3.712;2023-04-08T01:57:05;3.95;;;3.75;;
23370;SDS011;11858;51.056;3.712;2023-04-08T01:59:36;3.55;;;3.38;;
23370;SDS011;11858;51.056;3.712;2023-04-08T02:02:04;3.70;;;3.50;;
23370;SDS011;11858;51.056;3.712;2023-04-08T02:04:33;4.43;;;4.22;;
23370;SDS011;11858;51.056;3.712;2023-04-08T02:07:00;4.18;;;3.97;;
23370;SDS011;11858;51.056;3.712;2023-04-08T02:09:26;5.35;;;5.07;;
23370;SDS011;11858;51.056;3.712;2023-04-08T02:11:52;4.03;;;3.83;;
23370;SDS011;11858;51.056;3.712;2023-04-08T02:14:18;3.70;;;3.50;;
23370;SDS011;11858;51.056;3.712;2023-04-08T02:19:19;4.13;;;3.92;;
23370;SDS011;11858;51.056;3.712;2023-04-08T02:21:54;4.38;;;4.18;;
23370;SDS011;11858;51.056;3.712;2023-04-08T02:24:26;4.10;;;3.90;;
23370;SDS011;11858;51.056;3.712;2023-04-08T02:26:52;4.00;;;3.80;;
23370;SDS011;11858;51.056;3.712;2023-04-08T02:29:20;3.90;;;3.70;;
23370;SDS011;11858;51.056;3.712;2023-04-08T02:31:46;4.20;;;4.00;;
23370;SDS011;11858;51.056;3.712;2023-04-08T02:34:14;3.75;;;3.55;;
23370;SDS011;11858;51.056;3.712;2023-04-08T02:36:41;4.85;;;4.55;;
23370;SDS011;11858;51.056;3.712;2023-04-08T02:39:10;3.20;;;3.10;;
23370;SDS011;11858;51.056;3.712;2023-04-08T02:41:35;3.10;;;3.00;;
23370;SDS011;11858;51.056;3.712;2023-04-08T02:44:01;3.70;;;3.50;;
23370;SDS011;11858;51.056;3.712;2023-04-08T02:46:27;3.30;;;3.20;;
23370;SDS011;11858;51.056;3.712;2023-04-08T02:48:53;3.65;;;3.45;;
23370;SDS011;11858;51.056;3.712;2023-04-08T02:51:19;3.38;;;3.28;;
23370;SDS011;11858;51.056;3.712;2023-04-08T02:53:45;3.65;;;3.45;;
23370;SDS011;11858;51.056;3.712;2023-04-08T02:56:11;3.65;;;3.47;;
23370;SDS011;11858;51.056;3.712;2023-04-08T02:58:37;2.80;;;2.70;;
23370;SDS011;11858;51.056;3.712;2023-04-08T03:01:02;2.92;;;2.83;;
23370;SDS011;11858;51.056;3.712;2023-04-08T03:03:28;2.95;;;2.85;;
23370;SDS011;11858;51.056;3.712;2023-04-08T03:05:55;3.88;;;3.67;;
23370;SDS011;11858;51.056;3.712;2023-04-08T03:08:22;3.90;;;3.70;;
23370;SDS011;11858;51.056;3.712;2023-04-08T03:10:48;3.90;;;3.70;;
23370;SDS011;11858;51.056;3.712;2023-04-08T03:13:14;3.78;;;3.58;;
23370;SDS011;11858;51.056;3.712;2023-04-08T03:15:40;4.10;;;3.90;;
23370;SDS011;11858;51.056;3.712;2023-04-08T03:18:07;4.05;;;3.85;;
23370;SDS011;11858;51.056;3.712;2023-04-08T03:20:33;4.60;;;4.40;;
23370;SDS011;11858;51.056;3.712;2023-04-08T03:22:58;4.40;;;4.20;;
23370;SDS011;11858;51.056;3.712;2023-04-08T03:25:24;6.00;;;5.70;;
23370;SDS011;11858;51.056;3.712;2023-04-08T03:27:50;4.32;;;4.13;;
23370;SDS011;11858;51.056;3.712;2023-04-08T03:30:16;4.47;;;4.28;;
23370;SDS011;11858;51.056;3.712;2023-04-08T03:32:42;5.07;;;4.88;;
23370;SDS011;11858;51.056;3.712;2023-04-08T03:35:08;3.92;;;3.72;;
23370;SDS011;11858;51.056;3.712;2023-04-08T03:37:34;4.30;;;4.10;;
23370;SDS011;11858;51.056;3.712;2023-04-08T03:39:59;4.10;;;3.90;;
23370;SDS011;11858;51.056;3.712;2023-04-08T03:42:25;4.18;;;3.97;;
23370;SDS011;11858;51.056;3.712;2023-04-08T03:44:51;4.03;;;3.83;;
23370;SDS011;11858;51.056;3.712;2023-04-08T03:47:17;4.30;;;4.10;;
23370;SDS011;11858;51.056;3.712;2023-04-08T03:49:42;4.35;;;4.15;;
23370;SDS011;11858;51.056;3.712;2023-04-08T03:52:08;4.68;;;4.47;;
23370;SDS011;11858;51.056;3.712;2023-04-08T03:54:34;5.35;;;5.05;;
23370;SDS011;11858;51.056;3.712;2023-04-08T03:57:00;4.90;;;4.70;;
23370;SDS011;11858;51.056;3.712;2023-04-08T03:59:25;5.18;;;4.97;;
23370;SDS011;11858;51.056;3.712;2023-04-08T04:01:51;4.30;;;4.10;;
23370;SDS011;11858;51.056;3.712;2023-04-08T04:04:17;4.68;;;4.47;;
23370;SDS011;11858;51.056;3.712;2023-04-08T04:06:43;3.95;;;3.75;;
23370;SDS011;11858;51.056;3.712;2023-04-08T04:09:09;3.08;;;2.97;;
23370;SDS011;11858;51.056;3.712;2023-04-08T04:11:35;3.55;;;3.38;;
23370;SDS011;11858;51.056;3.712;2023-04-08T04:14:01;2.78;;;2.67;;
23370;SDS011;11858;51.056;3.712;2023-04-08T04:16:28;2.50;;;2.40;;
23370;SDS011;11858;51.056;3.712;2023-04-08T04:18:53;2.50;;;2.40;;
23370;SDS011;11858;51.056;3.712;2023-04-08T04:21:19;2.25;;;2.15;;
23370;SDS011;11858;51.056;3.712;2023-04-08T04:23:45;2.15;;;2.05;;
23370;SDS011;11858;51.056;3.712;2023-04-08T04:26:11;2.22;;;2.13;;
23370;SDS011;11858;51.056;3.712;2023-04-08T04:28:37;2.47;;;2.38;;
23370;SDS011;11858;51.056;3.712;2023-04-08T04:31:03;2.40;;;2.30;;
23370;SDS011;11858;51.056;3.712;2023-04-08T04:33:29;2.42;;;2.33;;
23370;SDS011;11858;51.056;3.712;2023-04-08T04:35:55;3.15;;;3.00;;
23370;SDS011;11858;51.056;3.712;2023-04-08T04:38:21;2.88;;;2.78;;
23370;SDS011;11858;51.056;3.712;2023-04-08T04:40:47;2.72;;;2.63;;
23370;SDS011;11858;51.056;3.712;2023-04-08T04:43:13;3.35;;;3.25;;
23370;SDS011;11858;51.056;3.712;2023-04-08T04:45:39;2.70;;;2.60;;
23370;SDS011;11858;51.056;3.712;2023-04-08T04:48:04;3.00;;;2.90;;
23370;SDS011;11858;51.056;3.712;2023-04-08T04:50:30;2.95;;;2.85;;
23370;SDS011;11858;51.056;3.712;2023-04-08T04:52:56;2.40;;;2.30;;
23370;SDS011;11858;51.056;3.712;2023-04-08T04:55:22;2.45;;;2.35;;
23370;SDS011;11858;51.056;3.712;2023-04-08T04:57:48;2.70;;;2.60;;
23370;SDS011;11858;51.056;3.712;2023-04-08T05:00:14;2.95;;;2.85;;
23370;SDS011;11858;51.056;3.712;2023-04-08T05:02:40;2.50;;;2.40;;
23370;SDS011;11858;51.056;3.712;2023-04-08T05:05:06;2.60;;;2.50;;
23370;SDS011;11858;51.056;3.712;2023-04-08T05:07:35;2.80;;;2.70;;
23370;SDS011;11858;51.056;3.712;2023-04-08T05:10:02;2.75;;;2.65;;
23370;SDS011;11858;51.056;3.712;2023-04-08T05:12:28;2.40;;;2.30;;
23370;SDS011;11858;51.056;3.712;2023-04-08T05:14:56;2.63;;;2.53;;
23370;SDS011;11858;51.056;3.712;2023-04-08T05:17:23;2.42;;;2.33;;
23370;SDS011;11858;51.056;3.712;2023-04-08T05:19:49;2.70;;;2.60;;
23370;SDS011;11858;51.056;3.712;2023-04-08T05:22:16;2.78;;;2.67;;
23370;SDS011;11858;51.056;3.712;2023-04-08T05:24:41;2.50;;;2.40;;
23370;SDS011;11858;51.056;3.712;2023-04-08T05:27:07;3.30;;;3.20;;
23370;SDS011;11858;51.056;3.712;2023-04-08T05:29:33;2.92;;;2.83;;
23370;SDS011;11858;51.056;3.712;2023-04-08T05:31:58;3.00;;;2.90;;
23370;SDS011;11858;51.056;3.712;2023-04-08T05:34:24;4.68;;;4.38;;
23370;SDS011;11858;51.056;3.712;2023-04-08T05:36:50;3.45;;;3.33;;
23370;SDS011;11858;51.056;3.712;2023-04-08T05:39:16;3.30;;;3.20;;
23370;SDS011;11858;51.056;3.712;2023-04-08T05:41:43;2.92;;;2.83;;
23370;SDS011;11858;51.056;3.712;2023-04-08T05:44:09;3.00;;;2.90;;
23370;SDS011;11858;51.056;3.712;2023-04-08T05:46:36;2.85;;;2.75;;
23370;SDS011;11858;51.056;3.712;2023-04-08T05:49:02;5.20;;;4.90;;
23370;SDS011;11858;51.056;3.712;2023-04-08T05:51:28;3.10;;;3.00;;
23370;SDS011;11858;51.056;3.712;2023-04-08T05:53:53;2.85;;;2.75;;
23370;SDS011;11858;51.056;3.712;2023-04-08T05:56:19;2.65;;;2.55;;
23370;SDS011;11858;51.056;3.712;2023-04-08T05:58:45;2.70;;;2.60;;
23370;SDS011;11858;51.056;3.712;2023-04-08T06:01:11;2.53;;;2.42;;
23370;SDS011;11858;51.056;3.712;2023-04-08T06:03:37;2.78;;;2.67;;
23370;SDS011;11858;51.056;3.712;2023-04-08T06:06:03;4.30;;;4.10;;
23370;SDS011;11858;51.056;3.712;2023-04-08T06:08:33;3.83;;;3.63;;
23370;SDS011;11858;51.056;3.712;2023-04-08T06:10:58;2.90;;;2.80;;
23370;SDS011;11858;51.056;3.712;2023-04-08T06:13:24;4.70;;;3.70;;
23370;SDS011;11858;51.056;3.712;2023-04-08T06:15:50;3.47;;;3.38;;
23370;SDS011;11858;51.056;3.712;2023-04-08T06:18:16;3.22;;;3.13;;
23370;SDS011;11858;51.056;3.712;2023-04-08T06:20:42;3.55;;;3.40;;
23370;SDS011;11858;51.056;3.712;2023-04-08T06:23:08;4.05;;;3.85;;
23370;SDS011;11858;51.056;3.712;2023-04-08T06:25:33;3.17;;;3.08;;
23370;SDS011;11858;51.056;3.712;2023-04-08T06:27:59;4.15;;;3.95;;
23370;SDS011;11858;51.056;3.712;2023-04-08T06:30:25;3.95;;;3.75;;
23370;SDS011;11858;51.056;3.712;2023-04-08T06:32:50;3.83;;;3.63;;
23370;SDS011;11858;51.056;3.712;2023-04-08T06:35:16;4.20;;;4.00;;
23370;SDS011;11858;51.056;3.712;2023-04-08T06:37:42;4.78;;;4.57;;
23370;SDS011;11858;51.056;3.712;2023-04-08T06:40:08;5.15;;;4.95;;
23370;SDS011;11858;51.056;3.712;2023-04-08T06:42:34;4.38;;;4.18;;
23370;SDS011;11858;51.056;3.712;2023-04-08T06:45:02;4.43;;;4.22;;
23370;SDS011;11858;51.056;3.712;2023-04-08T06:47:28;4.10;;;3.90;;
23370;SDS011;11858;51.056;3.712;2023-04-08T06:49:54;5.22;;;5.03;;
23370;SDS011;11858;51.056;3.712;2023-04-08T06:52:21;4.80;;;4.60;;
23370;SDS011;11858;51.056;3.712;2023-04-08T06:54:46;5.10;;;4.90;;
23370;SDS011;11858;51.056;3.712;2023-04-08T06:57:12;4.38;;;4.18;;
23370;SDS011;11858;51.056;3.712;2023-04-08T06:59:38;13.35;;;6.65;;
23370;SDS011;11858;51.056;3.712;2023-04-08T07:02:03;5.68;;;5.38;;
23370;SDS011;11858;51.056;3.712;2023-04-08T07:04:29;5.50;;;5.20;;
23370;SDS011;11858;51.056;3.712;2023-04-08T07:06:55;7.63;;;7.22;;
23370;SDS011;11858;51.056;3.712;2023-04-08T07:09:21;5.22;;;5.03;;
23370;SDS011;11858;51.056;3.712;2023-04-08T07:11:47;5.13;;;4.93;;
23370;SDS011;11858;51.056;3.712;2023-04-08T07:14:13;4.70;;;4.50;;
23370;SDS011;11858;51.056;3.712;2023-04-08T07:16:38;5.85;;;5.55;;
23370;SDS011;11858;51.056;3.712;2023-04-08T07:19:04;6.18;;;5.88;;
23370;SDS011;11858;51.056;3.712;2023-04-08T07:21:30;4.40;;;4.20;;
23370;SDS011;11858;51.056;3.712;2023-04-08T07:23:56;4.40;;;4.20;;
23370;SDS011;11858;51.056;3.712;2023-04-08T07:26:22;4.93;;;4.72;;
23370;SDS011;11858;51.056;3.712;2023-04-08T07:28:47;4.65;;;4.45;;
23370;SDS011;11858;51.056;3.712;2023-04-08T07:31:16;4.28;;;4.07;;
23370;SDS011;11858;51.056;3.712;2023-04-08T07:33:43;5.20;;;5.00;;
23370;SDS011;11858;51.056;3.712;2023-04-08T07:36:09;12.73;;;11.73;;
23370;SDS011;11858;51.056;3.712;2023-04-08T07:38:37;4.90;;;4.70;;
23370;SDS011;11858;51.056;3.712;2023-04-08T07:41:03;5.10;;;4.90;;
23370;SDS011;11858;51.056;3.712;2023-04-08T07:43:32;6.35;;;6.05;;
23370;SDS011;11858;51.056;3.712;2023-04-08T07:46:04;4.97;;;4.78;;
23370;SDS011;11858;51.056;3.712;2023-04-08T07:48:30;5.45;;;5.18;;
23370;SDS011;11858;51.056;3.712;2023-04-08T07:50:57;4.95;;;4.75;;
23370;SDS011;11858;51.056;3.712;2023-04-08T07:53:22;4.55;;;4.35;;
23370;SDS011;11858;51.056;3.712;2023-04-08T07:55:50;6.60;;;6.30;;
23370;SDS011;11858;51.056;3.712;2023-04-08T07:58:16;6.78;;;6.47;;
23370;SDS011;11858;51.056;3.712;2023-04-08T08:00:42;9.68;;;9.18;;
23370;SDS011;11858;51.056;3.712;2023-04-08T08:03:07;12.02;;;11.43;;
23370;SDS011;11858;51.056;3.712;2023-04-08T08:05:34;14.27;;;13.48;;
23370;SDS011;11858;51.056;3.712;2023-04-08T08:08:01;16.63;;;15.63;;
23370;SDS011;11858;51.056;3.712;2023-04-08T08:10:27;17.67;;;16.48;;
23370;SDS011;11858;51.056;3.712;2023-04-08T08:12:52;17.25;;;16.15;;
23370;SDS011;11858;51.056;3.712;2023-04-08T08:15:18;17.85;;;16.75;;
23370;SDS011;11858;51.056;3.712;2023-04-08T08:17:44;19.92;;;18.63;;
23370;SDS011;11858;51.056;3.712;2023-04-08T08:20:10;20.02;;;18.73;;
23370;SDS011;11858;51.056;3.712;2023-04-08T08:22:36;18.95;;;17.75;;
23370;SDS011;11858;51.056;3.712;2023-04-08T08:25:03;19.02;;;17.83;;
23370;SDS011;11858;51.056;3.712;2023-04-08T08:27:30;19.65;;;18.45;;
23370;SDS011;11858;51.056;3.712;2023-04-08T08:29:58;18.70;;;17.50;;
23370;SDS011;11858;51.056;3.712;2023-04-08T08:32:24;19.08;;;17.88;;
23370;SDS011;11858;51.056;3.712;2023-04-08T08:34:49;19.58;;;18.30;;
23370;SDS011;11858;51.056;3.712;2023-04-08T08:37:15;20.42;;;18.98;;
23370;SDS011;11858;51.056;3.712;2023-04-08T08:39:41;19.90;;;18.35;;
23370;SDS011;11858;51.056;3.712;2023-04-08T08:42:16;18.90;;;17.70;;
23370;SDS011;11858;51.056;3.712;2023-04-08T08:44:43;18.90;;;17.70;;
23370;SDS011;11858;51.056;3.712;2023-04-08T08:47:09;19.08;;;17.88;;
23370;SDS011;11858;51.056;3.712;2023-04-08T08:49:34;18.85;;;17.65;;
23370;SDS011;11858;51.056;3.712;2023-04-08T08:52:00;18.58;;;17.38;;
23370;SDS011;11858;51.056;3.712;2023-04-08T08:54:26;18.63;;;17.33;;
23370;SDS011;11858;51.056;3.712;2023-04-08T08:56:52;18.50;;;17.30;;
23370;SDS011;11858;51.056;3.712;2023-04-08T08:59:18;18.67;;;17.48;;
23370;SDS011;11858;51.056;3.712;2023-04-08T09:01:44;17.83;;;16.73;;
23370;SDS011;11858;51.056;3.712;2023-04-08T09:04:13;18.67;;;17.48;;
23370;SDS011;11858;51.056;3.712;2023-04-08T09:06:47;18.45;;;17.25;;
23370;SDS011;11858;51.056;3.712;2023-04-08T09:09:48;17.73;;;16.63;;
23370;SDS011;11858;51.056;3.712;2023-04-08T09:12:15;19.02;;;17.73;;
23370;SDS011;11858;51.056;3.712;2023-04-08T09:14:41;17.13;;;16.02;;
23370;SDS011;11858;51.056;3.712;2023-04-08T09:17:07;18.10;;;17.00;;
23370;SDS011;11858;51.056;3.712;2023-04-08T09:19:33;18.42;;;17.23;;
23370;SDS011;11858;51.056;3.712;2023-04-08T09:22:05;17.40;;;16.30;;
23370;SDS011;11858;51.056;3.712;2023-04-08T09:24:32;16.65;;;15.65;;
23370;SDS011;11858;51.056;3.712;2023-04-08T09:26:58;17.05;;;15.95;;
23370;SDS011;11858;51.056;3.712;2023-04-08T09:29:25;17.20;;;16.00;;
23370;SDS011;11858;51.056;3.712;2023-04-08T09:31:58;17.42;;;16.33;;
23370;SDS011;11858;51.056;3.712;2023-04-08T09:34:25;17.90;;;16.80;;
23370;SDS011;11858;51.056;3.712;2023-04-08T09:36:52;18.13;;;16.95;;
23370;SDS011;11858;51.056;3.712;2023-04-08T09:39:19;18.02;;;16.85;;
23370;SDS011;11858;51.056;3.712;2023-04-08T09:41:49;17.60;;;16.50;;
23370;SDS011;11858;51.056;3.712;2023-04-08T09:44:16;18.38;;;17.27;;
23370;SDS011;11858;51.056;3.712;2023-04-08T09:55:24;18.42;;;17.13;;
23370;SDS011;11858;51.056;3.712;2023-04-08T09:57:43;17.00;;;15.90;;
23370;SDS011;11858;51.056;3.712;2023-04-08T10:00:10;17.17;;;16.08;;
23370;SDS011;11858;51.056;3.712;2023-04-08T10:05:21;17.20;;;16.10;;
23370;SDS011;11858;51.056;3.712;2023-04-08T10:07:49;17.73;;;16.63;;
23370;SDS011;11858;51.056;3.712;2023-04-08T10:10:15;16.63;;;15.63;;
23370;SDS011;11858;51.056;3.712;2023-04-08T10:12:42;16.38;;;15.38;;
23370;SDS011;11858;51.056;3.712;2023-04-08T10:15:21;16.52;;;15.52;;
23370;SDS011;11858;51.056;3.712;2023-04-08T10:18:29;16.83;;;15.82;;
23370;SDS011;11858;51.056;3.712;2023-04-08T10:23:02;16.02;;;15.05;;
23370;SDS011;11858;51.056;3.712;2023-04-08T10:25:35;17.27;;;16.00;;
23370;SDS011;11858;51.056;3.712;2023-04-08T10:30:45;17.40;;;16.30;;
23370;SDS011;11858;51.056;3.712;2023-04-08T10:33:12;18.07;;;16.90;;
23370;SDS011;11858;51.056;3.712;2023-04-08T10:35:51;17.52;;;16.42;;
23370;SDS011;11858;51.056;3.712;2023-04-08T10:38:18;17.27;;;16.17;;
23370;SDS011;11858;51.056;3.712;2023-04-08T10:40:46;16.60;;;15.60;;
23370;SDS011;11858;51.056;3.712;2023-04-08T10:43:13;16.33;;;15.32;;
23370;SDS011;11858;51.056;3.712;2023-04-08T10:45:40;16.95;;;15.95;;
23370;SDS011;11858;51.056;3.712;2023-04-08T10:48:22;16.25;;;15.25;;
23370;SDS011;11858;51.056;3.712;2023-04-08T10:53:28;16.10;;;15.20;;
23370;SDS011;11858;51.056;3.712;2023-04-08T10:56:11;16.10;;;15.10;;
23370;SDS011;11858;51.056;3.712;2023-04-08T10:58:48;16.23;;;15.23;;
23370;SDS011;11858;51.056;3.712;2023-04-08T11:01:19;16.80;;;15.80;;
23370;SDS011;11858;51.056;3.712;2023-04-08T11:03:45;17.92;;;16.83;;
23370;SDS011;11858;51.056;3.712;2023-04-08T11:06:11;18.38;;;17.08;;
23370;SDS011;11858;51.056;3.712;2023-04-08T11:08:37;17.33;;;16.17;;
23370;SDS011;11858;51.056;3.712;2023-04-08T11:11:04;17.20;;;16.10;;
23370;SDS011;11858;51.056;3.712;2023-04-08T11:13:41;18.00;;;16.88;;
23370;SDS011;11858;51.056;3.712;2023-04-08T11:16:09;16.88;;;15.88;;
23370;SDS011;11858;51.056;3.712;2023-04-08T11:18:39;17.77;;;16.67;;
23370;SDS011;11858;51.056;3.712;2023-04-08T11:21:11;16.40;;;15.40;;
23370;SDS011;11858;51.056;3.712;2023-04-08T11:23:37;17.40;;;16.30;;
23370;SDS011;11858;51.056;3.712;2023-04-08T11:26:03;17.70;;;16.60;;
23370;SDS011;11858;51.056;3.712;2023-04-08T11:28:29;17.48;;;16.38;;
23370;SDS011;11858;51.056;3.712;2023-04-08T11:30:55;18.55;;;17.35;;
23370;SDS011;11858;51.056;3.712;2023-04-08T11:33:24;18.17;;;17.05;;
23370;SDS011;11858;51.056;3.712;2023-04-08T11:35:51;18.30;;;17.10;;
23370;SDS011;11858;51.056;3.712;2023-04-08T11:38:21;17.83;;;16.73;;
23370;SDS011;11858;51.056;3.712;2023-04-08T11:40:51;19.20;;;18.00;;
23370;SDS011;11858;51.056;3.712;2023-04-08T11:43:21;19.17;;;17.77;;
23370;SDS011;11858;51.056;3.712;2023-04-08T11:45:47;19.73;;;17.83;;
23370;SDS011;11858;51.056;3.712;2023-04-08T11:48:13;17.88;;;16.77;;
23370;SDS011;11858;51.056;3.712;2023-04-08T11:50:40;17.95;;;16.85;;
23370;SDS011;11858;51.056;3.712;2023-04-08T11:53:17;17.95;;;16.85;;
23370;SDS011;11858;51.056;3.712;2023-04-08T11:55:45;16.98;;;15.98;;
23370;SDS011;11858;51.056;3.712;2023-04-08T11:58:12;18.38;;;17.20;;
23370;SDS011;11858;51.056;3.712;2023-04-08T12:00:38;17.98;;;16.85;;
23370;SDS011;11858;51.056;3.712;2023-04-08T12:03:05;17.42;;;16.33;;
23370;SDS011;11858;51.056;3.712;2023-04-08T12:05:31;18.33;;;17.13;;
23370;SDS011;11858;51.056;3.712;2023-04-08T12:07:57;18.27;;;17.08;;
23370;SDS011;11858;51.056;3.712;2023-04-08T12:10:23;17.90;;;16.80;;
23370;SDS011;11858;51.056;3.712;2023-04-08T12:12:52;18.80;;;17.60;;
23370;SDS011;11858;51.056;3.712;2023-04-08T12:15:17;18.70;;;17.27;;
23370;SDS011;11858;51.056;3.712;2023-04-08T12:17:43;19.50;;;17.77;;
23370;SDS011;11858;51.056;3.712;2023-04-08T12:20:10;18.50;;;17.30;;
23370;SDS011;11858;51.056;3.712;2023-04-08T12:22:36;18.90;;;17.60;;
23370;SDS011;11858;51.056;3.712;2023-04-08T12:25:02;20.95;;;19.23;;
23370;SDS011;11858;51.056;3.712;2023-04-08T12:27:29;18.50;;;17.30;;
23370;SDS011;11858;51.056;3.712;2023-04-08T12:29:57;18.33;;;17.13;;
23370;SDS011;11858;51.056;3.712;2023-04-08T12:32:23;18.60;;;17.40;;
23370;SDS011;11858;51.056;3.712;2023-04-08T12:34:50;18.27;;;17.17;;
23370;SDS011;11858;51.056;3.712;2023-04-08T12:37:16;18.30;;;17.20;;
23370;SDS011;11858;51.056;3.712;2023-04-08T12:39:42;18.75;;;17.45;;
23370;SDS011;11858;51.056;3.712;2023-04-08T12:42:07;18.05;;;16.95;;
23370;SDS011;11858;51.056;3.712;2023-04-08T12:44:33;19.52;;;18.05;;
23370;SDS011;11858;51.056;3.712;2023-04-08T12:46:59;18.52;;;17.33;;
23370;SDS011;11858;51.056;3.712;2023-04-08T12:49:25;18.20;;;17.10;;
23370;SDS011;11858;51.056;3.712;2023-04-08T12:51:51;19.05;;;17.85;;
23370;SDS011;11858;51.056;3.712;2023-04-08T12:54:17;19.58;;;18.17;;
23370;SDS011;11858;51.056;3.712;2023-04-08T12:56:43;18.70;;;17.50;;
23370;SDS011;11858;51.056;3.712;2023-04-08T12:59:10;21.40;;;19.63;;
23370;SDS011;11858;51.056;3.712;2023-04-08T13:01:36;19.50;;;18.30;;
23370;SDS011;11858;51.056;3.712;2023-04-08T13:04:02;20.70;;;19.40;;
23370;SDS011;11858;51.056;3.712;2023-04-08T13:06:28;19.58;;;18.38;;
23370;SDS011;11858;51.056;3.712;2023-04-08T13:08:53;19.77;;;18.55;;
23370;SDS011;11858;51.056;3.712;2023-04-08T13:11:19;19.92;;;18.48;;
23370;SDS011;11858;51.056;3.712;2023-04-08T13:13:45;27.05;;;19.08;;
23370;SDS011;11858;51.056;3.712;2023-04-08T13:16:11;19.98;;;18.67;;
23370;SDS011;11858;51.056;3.712;2023-04-08T13:18:41;20.52;;;19.13;;
23370;SDS011;11858;51.056;3.712;2023-04-08T13:21:07;19.17;;;17.98;;
23370;SDS011;11858;51.056;3.712;2023-04-08T13:23:33;20.40;;;19.10;;
23370;SDS011;11858;51.056;3.712;2023-04-08T13:25:59;20.80;;;19.50;;
23370;SDS011;11858;51.056;3.712;2023-04-08T13:28:25;20.23;;;18.92;;
23370;SDS011;11858;51.056;3.712;2023-04-08T13:30:51;19.40;;;18.20;;
23370;SDS011;11858;51.056;3.712;2023-04-08T13:33:17;18.42;;;17.33;;
23370;SDS011;11858;51.056;3.712;2023-04-08T13:35:43;19.63;;;17.70;;
23370;SDS011;11858;51.056;3.712;2023-04-08T13:38:09;20.33;;;19.02;;
23370;SDS011;11858;51.056;3.712;2023-04-08T13:40:35;21.13;;;18.15;;
23370;SDS011;11858;51.056;3.712;2023-04-08T13:43:01;19.15;;;17.95;;
23370;SDS011;11858;51.056;3.712;2023-04-08T13:45:27;19.40;;;18.20;;
23370;SDS011;11858;51.056;3.712;2023-04-08T13:47:53;19.33;;;18.13;;
23370;SDS011;11858;51.056;3.712;2023-04-08T13:50:19;20.48;;;19.17;;
23370;SDS011;11858;51.056;3.712;2023-04-08T13:52:45;19.55;;;18.35;;
23370;SDS011;11858;51.056;3.712;2023-04-08T13:55:10;30.40;;;19.50;;
23370;SDS011;11858;51.056;3.712;2023-04-08T13:57:36;19.60;;;18.40;;
23370;SDS011;11858;51.056;3.712;2023-04-08T14:00:02;24.25;;;20.60;;
23370;SDS011;11858;51.056;3.712;2023-04-08T14:02:29;23.33;;;21.65;;
23370;SDS011;11858;51.056;3.712;2023-04-08T14:04:55;25.67;;;23.90;;
23370;SDS011;11858;51.056;3.712;2023-04-08T14:07:21;24.38;;;22.77;;
23370;SDS011;11858;51.056;3.712;2023-04-08T14:09:47;24.98;;;23.40;;
23370;SDS011;11858;51.056;3.712;2023-04-08T14:12:13;23.58;;;22.17;;
23370;SDS011;11858;51.056;3.712;2023-04-08T14:14:39;23.63;;;22.23;;
23370;SDS011;11858;51.056;3.712;2023-04-08T14:17:05;24.73;;;23.02;;
23370;SDS011;11858;51.056;3.712;2023-04-08T14:19:31;23.85;;;22.38;;
23370;SDS011;11858;51.056;3.712;2023-04-08T14:21:56;22.85;;;21.45;;
23370;SDS011;11858;51.056;3.712;2023-04-08T14:24:22;22.27;;;20.98;;
23370;SDS011;11858;51.056;3.712;2023-04-08T14:26:48;22.33;;;21.02;;
23370;SDS011;11858;51.056;3.712;2023-04-08T14:29:13;26.00;;;23.58;;
23370;SDS011;11858;51.056;3.712;2023-04-08T14:31:39;23.02;;;21.63;;
23370;SDS011;11858;51.056;3.712;2023-04-08T14:34:05;23.20;;;21.80;;
23370;SDS011;11858;51.056;3.712;2023-04-08T14:36:31;23.40;;;22.00;;
23370;SDS011;11858;51.056;3.712;2023-04-08T14:38:57;28.73;;;26.67;;
23370;SDS011;11858;51.056;3.712;2023-04-08T14:41:22;24.58;;;22.98;;
23370;SDS011;11858;51.056;3.712;2023-04-08T14:43:50;23.63;;;22.23;;
23370;SDS011;11858;51.056;3.712;2023-04-08T14:46:16;23.55;;;22.15;;
23370;SDS011;11858;51.056;3.712;2023-04-08T14:48:42;25.52;;;23.70;;
23370;SDS011;11858;51.056;3.712;2023-04-08T14:51:08;24.60;;;23.10;;
23370;SDS011;11858;51.056;3.712;2023-04-08T14:53:33;22.92;;;21.52;;
23370;SDS011;11858;51.056;3.712;2023-04-08T14:56:00;24.85;;;23.25;;
23370;SDS011;11858;51.056;3.712;2023-04-08T14:58:26;22.50;;;21.10;;
23370;SDS011;11858;51.056;3.712;2023-04-08T15:00:52;24.25;;;22.45;;
23370;SDS011;11858;51.056;3.712;2023-04-08T15:03:17;23.25;;;21.80;;